sensor_id;sensor_type;location;lat;lon;timestamp;pressure;altitude;pressure_sealevel;temperature
16956;BMP180;8594;52.052;8.354;2022-12-07T00:00:55;100483.00;;;7.40
16956;BMP180;8594;52.052;8.354;2022-12-07T00:03:22;100482.00;;;7.70
16956;BMP180;8594;52.052;8.354;2022-12-07T00:05:49;100483.00;;;7.80
16956;BMP180;8594;52.052;8.354;2022-12-07T00:08:16;100476.00;;;7.70
16956;BMP180;8594;52.052;8.354;2022-12-07T00:10:42;100465.00;;;7.60
16956;BMP180;8594;52.052;8.354;2022-12-07T00:13:09;100467.00;;;7.70
16956;BMP180;8594;52.052;8.354;2022-12-07T00:15:38;100470.00;;;7.20
16956;BMP180;8594;52.052;8.354;2022-12-07T00:18:05;100468.00;;;7.50
16956;BMP180;8594;52.052;8.354;2022-12-07T00:20:32;100460.00;;;7.80
16956;BMP180;8594;52.052;8.354;2022-12-07T00:22:59;100463.00;;;7.70
16956;BMP180;8594;52.052;8.354;2022-12-07T00:25:26;100455.00;;;7.60
16956;BMP180;8594;52.052;8.354;2022-12-07T00:27:53;100462.00;;;7.80
16956;BMP180;8594;52.052;8.354;2022-12-07T00:30:22;100465.00;;;7.60
16956;BMP180;8594;52.052;8.354;2022-12-07T00:32:51;100457.00;;;7.80
16956;BMP180;8594;52.052;8.354;2022-12-07T00:35:18;100460.00;;;7.60
16956;BMP180;8594;52.052;8.354;2022-12-07T00:37:45;100455.00;;;7.70
16956;BMP180;8594;52.052;8.354;2022-12-07T00:40:12;100457.00;;;7.60
16956;BMP180;8594;52.052;8.354;2022-12-07T00:42:39;100452.00;;;7.50
16956;BMP180;8594;52.052;8.354;2022-12-07T00:45:08;100448.00;;;7.60
16956;BMP180;8594;52.052;8.354;2022-12-07T00:47:35;100447.00;;;7.50
16956;BMP180;8594;52.052;8.354;2022-12-07T00:50:04;100453.00;;;7.50
16956;BMP180;8594;52.052;8.354;2022-12-07T00:52:31;100448.00;;;7.70
16956;BMP180;8594;52.052;8.354;2022-12-07T00:54:58;100433.00;;;7.80
16956;BMP180;8594;52.052;8.354;2022-12-07T00:57:25;100446.00;;;7.90
16956;BMP180;8594;52.052;8.354;2022-12-07T00:59:52;100438.00;;;7.40
16956;BMP180;8594;52.052;8.354;2022-12-07T01:02:21;100443.00;;;7.80
16956;BMP180;8594;52.052;8.354;2022-12-07T01:04:48;100440.00;;;7.60
16956;BMP180;8594;52.052;8.354;2022-12-07T01:07:16;100434.00;;;7.60
16956;BMP180;8594;52.052;8.354;2022-12-07T01:09:43;100441.00;;;7.90
16956;BMP180;8594;52.052;8.354;2022-12-07T01:12:10;100435.00;;;7.70
16956;BMP180;8594;52.052;8.354;2022-12-07T01:14:37;100445.00;;;7.90
16956;BMP180;8594;52.052;8.354;2022-12-07T01:17:04;100447.00;;;7.80
16956;BMP180;8594;52.052;8.354;2022-12-07T01:19:31;100441.00;;;7.80
16956;BMP180;8594;52.052;8.354;2022-12-07T01:21:58;100438.00;;;7.90
16956;BMP180;8594;52.052;8.354;2022-12-07T01:24:26;100445.00;;;8.00
16956;BMP180;8594;52.052;8.354;2022-12-07T01:26:53;100442.00;;;7.90
16956;BMP180;8594;52.052;8.354;2022-12-07T01:29:20;100442.00;;;7.80
16956;BMP180;8594;52.052;8.354;2022-12-07T01:31:49;100448.00;;;7.80
16956;BMP180;8594;52.052;8.354;2022-12-07T01:34:16;100444.00;;;7.90
16956;BMP180;8594;52.052;8.354;2022-12-07T01:36:43;100444.00;;;8.00
16956;BMP180;8594;52.052;8.354;2022-12-07T01:39:10;100439.00;;;7.80
16956;BMP180;8594;52.052;8.354;2022-12-07T01:41:40;100448.00;;;8.00
16956;BMP180;8594;52.052;8.354;2022-12-07T01:44:24;100447.00;;;8.00
16956;BMP180;8594;52.052;8.354;2022-12-07T01:46:53;100448.00;;;7.60
16956;BMP180;8594;52.052;8.354;2022-12-07T01:49:36;100452.00;;;7.80
16956;BMP180;8594;52.052;8.354;2022-12-07T01:52:14;100444.00;;;7.70
16956;BMP180;8594;52.052;8.354;2022-12-07T01:54:44;100448.00;;;7.70
16956;BMP180;8594;52.052;8.354;2022-12-07T01:57:15;100452.00;;;7.90
16956;BMP180;8594;52.052;8.354;2022-12-07T01:59:44;100445.00;;;7.70
16956;BMP180;8594;52.052;8.354;2022-12-07T02:02:19;100445.00;;;7.50
16956;BMP180;8594;52.052;8.354;2022-12-07T02:04:47;100446.00;;;7.80
16956;BMP180;8594;52.052;8.354;2022-12-07T02:07:14;100442.00;;;7.70
16956;BMP180;8594;52.052;8.354;2022-12-07T02:09:42;100444.00;;;7.40
16956;BMP180;8594;52.052;8.354;2022-12-07T02:12:09;100445.00;;;7.90
16956;BMP180;8594;52.052;8.354;2022-12-07T02:14:37;100435.00;;;7.80
16956;BMP180;8594;52.052;8.354;2022-12-07T02:17:12;100442.00;;;8.00
16956;BMP180;8594;52.052;8.354;2022-12-07T02:20:12;100444.00;;;7.60
16956;BMP180;8594;52.052;8.354;2022-12-07T02:23:11;100440.00;;;7.70
16956;BMP180;8594;52.052;8.354;2022-12-07T02:26:18;100441.00;;;7.70
16956;BMP180;8594;52.052;8.354;2022-12-07T02:29:10;100443.00;;;7.90
16956;BMP180;8594;52.052;8.354;2022-12-07T02:31:46;100436.00;;;7.70
16956;BMP180;8594;52.052;8.354;2022-12-07T02:34:24;100434.00;;;7.90
16956;BMP180;8594;52.052;8.354;2022-12-07T02:36:57;100437.00;;;7.50
16956;BMP180;8594;52.052;8.354;2022-12-07T02:39:36;100432.00;;;7.80
16956;BMP180;8594;52.052;8.354;2022-12-07T02:42:13;100421.00;;;7.80
16956;BMP180;8594;52.052;8.354;2022-12-07T02:44:44;100423.00;;;7.40
16956;BMP180;8594;52.052;8.354;2022-12-07T02:47:16;100425.00;;;7.50
16956;BMP180;8594;52.052;8.354;2022-12-07T02:49:44;100426.00;;;7.60
16956;BMP180;8594;52.052;8.354;2022-12-07T02:52:11;100433.00;;;7.50
16956;BMP180;8594;52.052;8.354;2022-12-07T02:54:38;100423.00;;;7.70
16956;BMP180;8594;52.052;8.354;2022-12-07T02:57:26;100431.00;;;7.80
16956;BMP180;8594;52.052;8.354;2022-12-07T03:00:04;100422.00;;;7.00
16956;BMP180;8594;52.052;8.354;2022-12-07T03:02:46;100422.00;;;7.30
16956;BMP180;8594;52.052;8.354;2022-12-07T03:06:01;100430.00;;;7.50
16956;BMP180;8594;52.052;8.354;2022-12-07T03:08:47;100423.00;;;7.20
16956;BMP180;8594;52.052;8.354;2022-12-07T03:11:22;100419.00;;;7.60
16956;BMP180;8594;52.052;8.354;2022-12-07T03:13:59;100422.00;;;7.40
16956;BMP180;8594;52.052;8.354;2022-12-07T03:16:35;100424.00;;;7.60
16956;BMP180;8594;52.052;8.354;2022-12-07T03:19:10;100417.00;;;7.30
16956;BMP180;8594;52.052;8.354;2022-12-07T03:21:44;100419.00;;;6.90
16956;BMP180;8594;52.052;8.354;2022-12-07T03:24:18;100415.00;;;7.20
16956;BMP180;8594;52.052;8.354;2022-12-07T03:26:49;100415.00;;;7.20
16956;BMP180;8594;52.052;8.354;2022-12-07T03:29:24;100414.00;;;7.20
16956;BMP180;8594;52.052;8.354;2022-12-07T03:32:00;100418.00;;;7.10
16956;BMP180;8594;52.052;8.354;2022-12-07T03:34:35;100417.00;;;7.30
16956;BMP180;8594;52.052;8.354;2022-12-07T03:37:08;100408.00;;;7.00
16956;BMP180;8594;52.052;8.354;2022-12-07T03:39:41;100403.00;;;7.20
16956;BMP180;8594;52.052;8.354;2022-12-07T03:42:12;100406.00;;;7.00
16956;BMP180;8594;52.052;8.354;2022-12-07T03:44:40;100404.00;;;7.20
16956;BMP180;8594;52.052;8.354;2022-12-07T03:47:16;100404.00;;;7.20
16956;BMP180;8594;52.052;8.354;2022-12-07T03:49:54;100409.00;;;6.80
16956;BMP180;8594;52.052;8.354;2022-12-07T03:52:30;100415.00;;;7.00
16956;BMP180;8594;52.052;8.354;2022-12-07T03:55:06;100414.00;;;6.90
16956;BMP180;8594;52.052;8.354;2022-12-07T03:57:35;100414.00;;;7.10
16956;BMP180;8594;52.052;8.354;2022-12-07T04:00:06;100416.00;;;7.20
16956;BMP180;8594;52.052;8.354;2022-12-07T04:02:36;100414.00;;;7.00
16956;BMP180;8594;52.052;8.354;2022-12-07T04:05:04;100418.00;;;6.80
16956;BMP180;8594;52.052;8.354;2022-12-07T04:07:31;100415.00;;;7.10
16956;BMP180;8594;52.052;8.354;2022-12-07T04:09:58;100410.00;;;7.20
16956;BMP180;8594;52.052;8.354;2022-12-07T04:12:25;100407.00;;;7.30
16956;BMP180;8594;52.052;8.354;2022-12-07T04:14:52;100414.00;;;7.50
16956;BMP180;8594;52.052;8.354;2022-12-07T04:17:19;100404.00;;;7.40
16956;BMP180;8594;52.052;8.354;2022-12-07T04:19:47;100408.00;;;7.00
16956;BMP180;8594;52.052;8.354;2022-12-07T04:22:14;100407.00;;;7.10
16956;BMP180;8594;52.052;8.354;2022-12-07T04:24:41;100411.00;;;7.30
16956;BMP180;8594;52.052;8.354;2022-12-07T04:27:08;100410.00;;;7.20
16956;BMP180;8594;52.052;8.354;2022-12-07T04:29:35;100418.00;;;7.00
16956;BMP180;8594;52.052;8.354;2022-12-07T04:32:02;100414.00;;;6.90
16956;BMP180;8594;52.052;8.354;2022-12-07T04:34:29;100418.00;;;6.70
16956;BMP180;8594;52.052;8.354;2022-12-07T04:36:57;100414.00;;;7.00
16956;BMP180;8594;52.052;8.354;2022-12-07T04:39:28;100412.00;;;6.70
16956;BMP180;8594;52.052;8.354;2022-12-07T04:41:56;100412.00;;;7.00
16956;BMP180;8594;52.052;8.354;2022-12-07T04:44:25;100406.00;;;6.40
16956;BMP180;8594;52.052;8.354;2022-12-07T04:46:54;100410.00;;;7.00
16956;BMP180;8594;52.052;8.354;2022-12-07T04:49:21;100410.00;;;6.40
16956;BMP180;8594;52.052;8.354;2022-12-07T04:51:48;100402.00;;;6.50
16956;BMP180;8594;52.052;8.354;2022-12-07T04:54:18;100409.00;;;6.60
16956;BMP180;8594;52.052;8.354;2022-12-07T04:56:45;100415.00;;;6.40
16956;BMP180;8594;52.052;8.354;2022-12-07T04:59:13;100412.00;;;6.70
16956;BMP180;8594;52.052;8.354;2022-12-07T05:01:41;100415.00;;;6.70
16956;BMP180;8594;52.052;8.354;2022-12-07T05:04:08;100421.00;;;6.70
16956;BMP180;8594;52.052;8.354;2022-12-07T05:06:36;100408.00;;;6.60
16956;BMP180;8594;52.052;8.354;2022-12-07T05:09:03;100412.00;;;6.70
16956;BMP180;8594;52.052;8.354;2022-12-07T05:11:32;100405.00;;;6.90
16956;BMP180;8594;52.052;8.354;2022-12-07T05:14:09;100407.00;;;6.90
16956;BMP180;8594;52.052;8.354;2022-12-07T05:16:36;100403.00;;;6.90
16956;BMP180;8594;52.052;8.354;2022-12-07T05:19:04;100407.00;;;6.70
16956;BMP180;8594;52.052;8.354;2022-12-07T05:21:32;100406.00;;;6.70
16956;BMP180;8594;52.052;8.354;2022-12-07T05:23:59;100409.00;;;6.80
16956;BMP180;8594;52.052;8.354;2022-12-07T05:26:26;100404.00;;;6.90
16956;BMP180;8594;52.052;8.354;2022-12-07T05:28:55;100405.00;;;6.80
16956;BMP180;8594;52.052;8.354;2022-12-07T05:31:24;100404.00;;;6.40
16956;BMP180;8594;52.052;8.354;2022-12-07T05:33:52;100414.00;;;6.70
16956;BMP180;8594;52.052;8.354;2022-12-07T05:36:19;100415.00;;;6.80
16956;BMP180;8594;52.052;8.354;2022-12-07T05:38:46;100410.00;;;6.40
16956;BMP180;8594;52.052;8.354;2022-12-07T05:41:17;100406.00;;;6.70
16956;BMP180;8594;52.052;8.354;2022-12-07T05:44:03;100403.00;;;6.20
16956;BMP180;8594;52.052;8.354;2022-12-07T05:46:31;100404.00;;;6.30
16956;BMP180;8594;52.052;8.354;2022-12-07T05:48:58;100402.00;;;6.20
16956;BMP180;8594;52.052;8.354;2022-12-07T05:51:25;100403.00;;;6.50
16956;BMP180;8594;52.052;8.354;2022-12-07T05:53:52;100403.00;;;6.50
16956;BMP180;8594;52.052;8.354;2022-12-07T05:56:18;100402.00;;;6.40
16956;BMP180;8594;52.052;8.354;2022-12-07T05:58:46;100406.00;;;6.30
16956;BMP180;8594;52.052;8.354;2022-12-07T06:01:32;100406.00;;;6.20
16956;BMP180;8594;52.052;8.354;2022-12-07T06:03:59;100400.00;;;6.40
16956;BMP180;8594;52.052;8.354;2022-12-07T06:06:25;100398.00;;;6.20
16956;BMP180;8594;52.052;8.354;2022-12-07T06:08:52;100404.00;;;6.00
16956;BMP180;8594;52.052;8.354;2022-12-07T06:11:19;100396.00;;;5.90
16956;BMP180;8594;52.052;8.354;2022-12-07T06:14:04;100402.00;;;6.00
16956;BMP180;8594;52.052;8.354;2022-12-07T06:16:32;100395.00;;;6.10
16956;BMP180;8594;52.052;8.354;2022-12-07T06:18:59;100408.00;;;5.90
16956;BMP180;8594;52.052;8.354;2022-12-07T06:21:26;100404.00;;;6.00
16956;BMP180;8594;52.052;8.354;2022-12-07T06:23:53;100401.00;;;5.90
16956;BMP180;8594;52.052;8.354;2022-12-07T06:26:20;100397.00;;;5.70
16956;BMP180;8594;52.052;8.354;2022-12-07T06:28:47;100395.00;;;5.90
16956;BMP180;8594;52.052;8.354;2022-12-07T06:31:14;100394.00;;;6.20
16956;BMP180;8594;52.052;8.354;2022-12-07T06:33:43;100394.00;;;6.00
16956;BMP180;8594;52.052;8.354;2022-12-07T06:36:10;100387.00;;;5.80
16956;BMP180;8594;52.052;8.354;2022-12-07T06:38:37;100394.00;;;6.10
16956;BMP180;8594;52.052;8.354;2022-12-07T06:41:04;100396.00;;;6.00
16956;BMP180;8594;52.052;8.354;2022-12-07T06:43:32;100397.00;;;6.10
16956;BMP180;8594;52.052;8.354;2022-12-07T06:45:59;100399.00;;;5.70
16956;BMP180;8594;52.052;8.354;2022-12-07T06:48:26;100407.00;;;6.00
16956;BMP180;8594;52.052;8.354;2022-12-07T06:50:54;100403.00;;;6.00
16956;BMP180;8594;52.052;8.354;2022-12-07T06:53:22;100396.00;;;5.80
16956;BMP180;8594;52.052;8.354;2022-12-07T06:55:49;100408.00;;;6.20
16956;BMP180;8594;52.052;8.354;2022-12-07T06:58:17;100404.00;;;6.40
16956;BMP180;8594;52.052;8.354;2022-12-07T07:00:44;100406.00;;;6.30
16956;BMP180;8594;52.052;8.354;2022-12-07T07:03:11;100410.00;;;6.30
16956;BMP180;8594;52.052;8.354;2022-12-07T07:05:38;100406.00;;;6.50
16956;BMP180;8594;52.052;8.354;2022-12-07T07:08:07;100403.00;;;6.30
16956;BMP180;8594;52.052;8.354;2022-12-07T07:10:35;100411.00;;;6.30
16956;BMP180;8594;52.052;8.354;2022-12-07T07:13:03;100409.00;;;6.40
16956;BMP180;8594;52.052;8.354;2022-12-07T07:15:31;100414.00;;;6.60
16956;BMP180;8594;52.052;8.354;2022-12-07T07:17:58;100417.00;;;6.50
16956;BMP180;8594;52.052;8.354;2022-12-07T07:20:25;100417.00;;;6.20
16956;BMP180;8594;52.052;8.354;2022-12-07T07:22:54;100420.00;;;6.20
16956;BMP180;8594;52.052;8.354;2022-12-07T07:25:23;100436.00;;;6.10
16956;BMP180;8594;52.052;8.354;2022-12-07T07:27:50;100435.00;;;6.30
16956;BMP180;8594;52.052;8.354;2022-12-07T07:30:17;100427.00;;;6.60
16956;BMP180;8594;52.052;8.354;2022-12-07T07:32:44;100432.00;;;6.20
16956;BMP180;8594;52.052;8.354;2022-12-07T07:35:11;100433.00;;;6.30
16956;BMP180;8594;52.052;8.354;2022-12-07T07:37:39;100436.00;;;6.20
16956;BMP180;8594;52.052;8.354;2022-12-07T07:40:08;100439.00;;;6.40
16956;BMP180;8594;52.052;8.354;2022-12-07T07:42:36;100436.00;;;6.40
16956;BMP180;8594;52.052;8.354;2022-12-07T07:45:04;100443.00;;;6.40
16956;BMP180;8594;52.052;8.354;2022-12-07T07:47:31;100440.00;;;6.40
16956;BMP180;8594;52.052;8.354;2022-12-07T07:49:58;100442.00;;;6.50
16956;BMP180;8594;52.052;8.354;2022-12-07T07:52:26;100435.00;;;6.40
16956;BMP180;8594;52.052;8.354;2022-12-07T07:54:53;100438.00;;;6.40
16956;BMP180;8594;52.052;8.354;2022-12-07T07:57:20;100444.00;;;6.30
16956;BMP180;8594;52.052;8.354;2022-12-07T07:59:48;100439.00;;;6.50
16956;BMP180;8594;52.052;8.354;2022-12-07T08:02:18;100442.00;;;6.60
16956;BMP180;8594;52.052;8.354;2022-12-07T08:04:45;100439.00;;;6.60
16956;BMP180;8594;52.052;8.354;2022-12-07T08:07:14;100443.00;;;6.30
16956;BMP180;8594;52.052;8.354;2022-12-07T08:09:42;100446.00;;;6.70
16956;BMP180;8594;52.052;8.354;2022-12-07T08:12:09;100444.00;;;6.70
16956;BMP180;8594;52.052;8.354;2022-12-07T08:14:36;100439.00;;;6.90
16956;BMP180;8594;52.052;8.354;2022-12-07T08:17:04;100440.00;;;6.50
16956;BMP180;8594;52.052;8.354;2022-12-07T08:19:31;100437.00;;;6.00
16956;BMP180;8594;52.052;8.354;2022-12-07T08:21:58;100443.00;;;6.60
16956;BMP180;8594;52.052;8.354;2022-12-07T08:24:25;100444.00;;;6.60
16956;BMP180;8594;52.052;8.354;2022-12-07T08:26:52;100442.00;;;6.70
16956;BMP180;8594;52.052;8.354;2022-12-07T08:29:19;100438.00;;;6.50
16956;BMP180;8594;52.052;8.354;2022-12-07T08:31:47;100432.00;;;6.40
16956;BMP180;8594;52.052;8.354;2022-12-07T08:34:15;100441.00;;;6.30
16956;BMP180;8594;52.052;8.354;2022-12-07T08:36:42;100436.00;;;6.20
16956;BMP180;8594;52.052;8.354;2022-12-07T08:39:09;100443.00;;;6.10
16956;BMP180;8594;52.052;8.354;2022-12-07T08:41:36;100439.00;;;6.40
16956;BMP180;8594;52.052;8.354;2022-12-07T08:44:04;100439.00;;;6.50
16956;BMP180;8594;52.052;8.354;2022-12-07T08:46:35;100437.00;;;6.50
16956;BMP180;8594;52.052;8.354;2022-12-07T08:49:10;100433.00;;;6.40
16956;BMP180;8594;52.052;8.354;2022-12-07T08:51:41;100435.00;;;6.30
16956;BMP180;8594;52.052;8.354;2022-12-07T08:54:11;100443.00;;;6.50
16956;BMP180;8594;52.052;8.354;2022-12-07T08:56:40;100439.00;;;6.50
16956;BMP180;8594;52.052;8.354;2022-12-07T08:59:08;100440.00;;;6.30
16956;BMP180;8594;52.052;8.354;2022-12-07T09:01:35;100443.00;;;6.80
16956;BMP180;8594;52.052;8.354;2022-12-07T09:04:02;100441.00;;;6.60
16956;BMP180;8594;52.052;8.354;2022-12-07T09:06:29;100442.00;;;6.70
16956;BMP180;8594;52.052;8.354;2022-12-07T09:08:59;100442.00;;;6.90
16956;BMP180;8594;52.052;8.354;2022-12-07T09:11:26;100440.00;;;7.00
16956;BMP180;8594;52.052;8.354;2022-12-07T09:13:53;100452.00;;;6.80
16956;BMP180;8594;52.052;8.354;2022-12-07T09:16:20;100448.00;;;7.00
16956;BMP180;8594;52.052;8.354;2022-12-07T09:18:47;100453.00;;;7.00
16956;BMP180;8594;52.052;8.354;2022-12-07T09:21:14;100455.00;;;6.70
16956;BMP180;8594;52.052;8.354;2022-12-07T09:23:42;100456.00;;;6.80
16956;BMP180;8594;52.052;8.354;2022-12-07T09:26:10;100458.00;;;6.80
16956;BMP180;8594;52.052;8.354;2022-12-07T09:28:38;100453.00;;;6.90
16956;BMP180;8594;52.052;8.354;2022-12-07T09:31:05;100455.00;;;6.90
16956;BMP180;8594;52.052;8.354;2022-12-07T09:33:32;100455.00;;;6.70
16956;BMP180;8594;52.052;8.354;2022-12-07T09:35:59;100461.00;;;6.80
16956;BMP180;8594;52.052;8.354;2022-12-07T09:38:26;100463.00;;;6.60
16956;BMP180;8594;52.052;8.354;2022-12-07T09:40:55;100459.00;;;6.80
16956;BMP180;8594;52.052;8.354;2022-12-07T09:43:25;100467.00;;;6.90
16956;BMP180;8594;52.052;8.354;2022-12-07T09:45:55;100453.00;;;6.80
16956;BMP180;8594;52.052;8.354;2022-12-07T09:48:28;100450.00;;;7.10
16956;BMP180;8594;52.052;8.354;2022-12-07T09:50:59;100457.00;;;6.70
16956;BMP180;8594;52.052;8.354;2022-12-07T09:53:30;100454.00;;;6.80
16956;BMP180;8594;52.052;8.354;2022-12-07T09:56:01;100447.00;;;6.80
16956;BMP180;8594;52.052;8.354;2022-12-07T09:58:32;100441.00;;;6.90
16956;BMP180;8594;52.052;8.354;2022-12-07T10:01:11;100444.00;;;6.80
16956;BMP180;8594;52.052;8.354;2022-12-07T10:03:45;100445.00;;;7.00
16956;BMP180;8594;52.052;8.354;2022-12-07T10:06:14;100441.00;;;6.90
16956;BMP180;8594;52.052;8.354;2022-12-07T10:08:40;100444.00;;;7.10
16956;BMP180;8594;52.052;8.354;2022-12-07T10:11:10;100441.00;;;6.60
16956;BMP180;8594;52.052;8.354;2022-12-07T10:13:41;100439.00;;;6.60
16956;BMP180;8594;52.052;8.354;2022-12-07T10:16:37;100429.00;;;7.30
16956;BMP180;8594;52.052;8.354;2022-12-07T10:19:22;100429.00;;;7.30
16956;BMP180;8594;52.052;8.354;2022-12-07T10:22:16;100436.00;;;7.60
16956;BMP180;8594;52.052;8.354;2022-12-07T10:24:47;100429.00;;;7.60
16956;BMP180;8594;52.052;8.354;2022-12-07T10:27:25;100429.00;;;7.50
16956;BMP180;8594;52.052;8.354;2022-12-07T10:29:54;100425.00;;;7.90
16956;BMP180;8594;52.052;8.354;2022-12-07T10:32:33;100418.00;;;7.60
16956;BMP180;8594;52.052;8.354;2022-12-07T10:35:26;100431.00;;;8.00
16956;BMP180;8594;52.052;8.354;2022-12-07T10:37:56;100426.00;;;7.50
16956;BMP180;8594;52.052;8.354;2022-12-07T10:40:33;100424.00;;;7.60
16956;BMP180;8594;52.052;8.354;2022-12-07T10:43:04;100420.00;;;7.90
16956;BMP180;8594;52.052;8.354;2022-12-07T10:45:34;100409.00;;;8.00
16956;BMP180;8594;52.052;8.354;2022-12-07T10:48:10;100402.00;;;8.00
16956;BMP180;8594;52.052;8.354;2022-12-07T10:51:02;100415.00;;;8.10
16956;BMP180;8594;52.052;8.354;2022-12-07T10:53:45;100404.00;;;7.70
16956;BMP180;8594;52.052;8.354;2022-12-07T11:00:00;100413.00;;;7.80
16956;BMP180;8594;52.052;8.354;2022-12-07T11:02:54;100412.00;;;8.20
16956;BMP180;8594;52.052;8.354;2022-12-07T11:05:34;100395.00;;;7.60
16956;BMP180;8594;52.052;8.354;2022-12-07T11:08:17;100403.00;;;7.50
16956;BMP180;8594;52.052;8.354;2022-12-07T11:10:55;100393.00;;;7.20
16956;BMP180;8594;52.052;8.354;2022-12-07T11:13:29;100394.00;;;7.40
16956;BMP180;8594;52.052;8.354;2022-12-07T11:16:23;100385.00;;;7.70
16956;BMP180;8594;52.052;8.354;2022-12-07T11:19:17;100394.00;;;7.90
16956;BMP180;8594;52.052;8.354;2022-12-07T11:21:56;100385.00;;;8.10
16956;BMP180;8594;52.052;8.354;2022-12-07T11:24:32;100386.00;;;8.20
16956;BMP180;8594;52.052;8.354;2022-12-07T11:27:18;100392.00;;;7.90
16956;BMP180;8594;52.052;8.354;2022-12-07T11:30:01;100386.00;;;8.30
16956;BMP180;8594;52.052;8.354;2022-12-07T11:32:49;100380.00;;;8.10
16956;BMP180;8594;52.052;8.354;2022-12-07T11:35:31;100382.00;;;8.50
16956;BMP180;8594;52.052;8.354;2022-12-07T11:38:11;100371.00;;;8.30
16956;BMP180;8594;52.052;8.354;2022-12-07T11:40:43;100367.00;;;8.20
16956;BMP180;8594;52.052;8.354;2022-12-07T11:43:21;100367.00;;;8.20
16956;BMP180;8594;52.052;8.354;2022-12-07T11:45:59;100369.00;;;7.80
16956;BMP180;8594;52.052;8.354;2022-12-07T11:48:33;100369.00;;;8.30
16956;BMP180;8594;52.052;8.354;2022-12-07T11:51:03;100368.00;;;8.50
16956;BMP180;8594;52.052;8.354;2022-12-07T11:53:38;100372.00;;;8.40
16956;BMP180;8594;52.052;8.354;2022-12-07T11:56:11;100367.00;;;8.20
16956;BMP180;8594;52.052;8.354;2022-12-07T11:58:48;100352.00;;;8.10
16956;BMP180;8594;52.052;8.354;2022-12-07T12:01:31;100346.00;;;8.10
16956;BMP180;8594;52.052;8.354;2022-12-07T12:04:12;100341.00;;;8.60
16956;BMP180;8594;52.052;8.354;2022-12-07T12:06:43;100338.00;;;8.90
16956;BMP180;8594;52.052;8.354;2022-12-07T12:09:14;100344.00;;;9.10
16956;BMP180;8594;52.052;8.354;2022-12-07T12:12:11;100345.00;;;8.70
16956;BMP180;8594;52.052;8.354;2022-12-07T12:14:53;100339.00;;;9.00
16956;BMP180;8594;52.052;8.354;2022-12-07T12:17:54;100335.00;;;8.30
16956;BMP180;8594;52.052;8.354;2022-12-07T12:20:29;100333.00;;;8.50
16956;BMP180;8594;52.052;8.354;2022-12-07T12:23:10;100345.00;;;8.80
16956;BMP180;8594;52.052;8.354;2022-12-07T12:25:42;100342.00;;;7.90
16956;BMP180;8594;52.052;8.354;2022-12-07T12:28:24;100333.00;;;8.50
16956;BMP180;8594;52.052;8.354;2022-12-07T12:31:11;100331.00;;;7.80
16956;BMP180;8594;52.052;8.354;2022-12-07T12:33:44;100333.00;;;7.80
16956;BMP180;8594;52.052;8.354;2022-12-07T12:36:44;100319.00;;;8.40
16956;BMP180;8594;52.052;8.354;2022-12-07T12:39:15;100323.00;;;8.80
16956;BMP180;8594;52.052;8.354;2022-12-07T12:41:59;100319.00;;;9.10
16956;BMP180;8594;52.052;8.354;2022-12-07T12:47:57;100315.00;;;8.90
16956;BMP180;8594;52.052;8.354;2022-12-07T12:50:28;100308.00;;;8.90
16956;BMP180;8594;52.052;8.354;2022-12-07T12:53:03;100322.00;;;9.20
16956;BMP180;8594;52.052;8.354;2022-12-07T12:56:04;100315.00;;;8.80
16956;BMP180;8594;52.052;8.354;2022-12-07T12:58:41;100311.00;;;8.90
16956;BMP180;8594;52.052;8.354;2022-12-07T13:01:44;100302.00;;;8.40
16956;BMP180;8594;52.052;8.354;2022-12-07T13:04:40;100309.00;;;8.40
16956;BMP180;8594;52.052;8.354;2022-12-07T13:07:54;100304.00;;;8.30
16956;BMP180;8594;52.052;8.354;2022-12-07T13:10:33;100304.00;;;8.20
16956;BMP180;8594;52.052;8.354;2022-12-07T13:13:31;100303.00;;;8.20
16956;BMP180;8594;52.052;8.354;2022-12-07T13:16:40;100312.00;;;7.80
16956;BMP180;8594;52.052;8.354;2022-12-07T13:19:56;100309.00;;;8.10
16956;BMP180;8594;52.052;8.354;2022-12-07T13:22:50;100304.00;;;8.10
16956;BMP180;8594;52.052;8.354;2022-12-07T13:25:30;100311.00;;;8.20
16956;BMP180;8594;52.052;8.354;2022-12-07T13:28:10;100307.00;;;8.30
16956;BMP180;8594;52.052;8.354;2022-12-07T13:30:47;100290.00;;;8.30
16956;BMP180;8594;52.052;8.354;2022-12-07T13:33:17;100296.00;;;8.30
16956;BMP180;8594;52.052;8.354;2022-12-07T13:35:45;100290.00;;;8.00
16956;BMP180;8594;52.052;8.354;2022-12-07T13:38:29;100296.00;;;8.10
16956;BMP180;8594;52.052;8.354;2022-12-07T13:41:10;100289.00;;;8.40
16956;BMP180;8594;52.052;8.354;2022-12-07T13:43:46;100281.00;;;8.50
16956;BMP180;8594;52.052;8.354;2022-12-07T13:46:14;100291.00;;;8.50
16956;BMP180;8594;52.052;8.354;2022-12-07T13:48:46;100296.00;;;8.20
16956;BMP180;8594;52.052;8.354;2022-12-07T13:51:21;100294.00;;;8.30
16956;BMP180;8594;52.052;8.354;2022-12-07T13:53:51;100284.00;;;8.20
16956;BMP180;8594;52.052;8.354;2022-12-07T13:56:22;100287.00;;;8.40
16956;BMP180;8594;52.052;8.354;2022-12-07T13:58:55;100285.00;;;7.90
16956;BMP180;8594;52.052;8.354;2022-12-07T14:01:22;100283.00;;;8.00
16956;BMP180;8594;52.052;8.354;2022-12-07T14:03:49;100283.00;;;8.30
16956;BMP180;8594;52.052;8.354;2022-12-07T14:06:24;100270.00;;;8.20
16956;BMP180;8594;52.052;8.354;2022-12-07T14:09:07;100276.00;;;8.10
16956;BMP180;8594;52.052;8.354;2022-12-07T14:11:35;100273.00;;;8.20
16956;BMP180;8594;52.052;8.354;2022-12-07T14:14:04;100257.00;;;8.10
16956;BMP180;8594;52.052;8.354;2022-12-07T14:16:34;100266.00;;;7.90
16956;BMP180;8594;52.052;8.354;2022-12-07T14:19:03;100268.00;;;7.80
16956;BMP180;8594;52.052;8.354;2022-12-07T14:21:33;100272.00;;;8.30
16956;BMP180;8594;52.052;8.354;2022-12-07T14:24:18;100267.00;;;8.10
16956;BMP180;8594;52.052;8.354;2022-12-07T14:26:46;100268.00;;;8.20
16956;BMP180;8594;52.052;8.354;2022-12-07T14:29:31;100259.00;;;7.80
16956;BMP180;8594;52.052;8.354;2022-12-07T14:32:18;100257.00;;;7.80
16956;BMP180;8594;52.052;8.354;2022-12-07T14:35:07;100256.00;;;7.90
16956;BMP180;8594;52.052;8.354;2022-12-07T14:37:37;100256.00;;;8.10
16956;BMP180;8594;52.052;8.354;2022-12-07T14:40:06;100258.00;;;8.00
16956;BMP180;8594;52.052;8.354;2022-12-07T14:42:34;100246.00;;;8.00
16956;BMP180;8594;52.052;8.354;2022-12-07T14:45:03;100249.00;;;8.20
16956;BMP180;8594;52.052;8.354;2022-12-07T14:47:31;100250.00;;;8.10
16956;BMP180;8594;52.052;8.354;2022-12-07T14:49:58;100246.00;;;7.90
16956;BMP180;8594;52.052;8.354;2022-12-07T14:52:28;100249.00;;;7.80
16956;BMP180;8594;52.052;8.354;2022-12-07T14:54:56;100247.00;;;7.90
16956;BMP180;8594;52.052;8.354;2022-12-07T14:57:23;100242.00;;;8.00
16956;BMP180;8594;52.052;8.354;2022-12-07T14:59:50;100244.00;;;8.30